Time;durP1;ratioP1;P1;durP2;ratioP2;P2;SDS_P1;SDS_P2;PMS_P1;PMS_P2;Temp;Humidity;BMP_temperature;BMP_pressure;BME280_temperature;BME280_humidity;BME280_pressure;Samples;Min_cycle;Max_cycle;Signal;HPM_P1;HPM_P2
2024/01/13 00:00:33;;;;;;;169.10;6.75;;;;;;;20.54;50.27;100161.38;7292017;19;129766;-39
2024/01/13 00:03:00;;;;;;;230.57;9.68;;;;;;;20.54;50.17;100154.34;7291171;19;130197;-39
2024/01/13 00:05:26;;;;;;;175.73;7.20;;;;;;;20.54;49.61;100164.00;7292244;19;130431;-39
2024/01/13 00:07:51;;;;;;;208.13;8.43;;;;;;;20.47;49.76;100144.53;7293095;19;131077;-39
2024/01/13 00:10:16;;;;;;;163.77;7.07;;;;;;;20.57;49.56;100155.91;7292207;19;131285;-43
2024/01/13 00:12:42;;;;;;;237.88;9.13;;;;;;;20.60;49.74;100158.28;7292415;19;130946;-38
2024/01/13 00:15:08;;;;;;;134.60;5.50;;;;;;;20.58;49.64;100149.72;7292117;19;131268;-39
2024/01/13 00:17:33;;;;;;;203.35;7.90;;;;;;;20.65;49.13;100161.38;7293800;19;130741;-39
2024/01/13 00:19:58;;;;;;;169.93;7.32;;;;;;;20.56;49.61;100141.19;7292523;19;129488;-39
2024/01/13 00:22:24;;;;;;;193.52;7.65;;;;;;;20.40;49.78;100114.59;7293110;19;130606;-38
2024/01/13 00:24:49;;;;;;;155.20;6.38;;;;;;;20.64;48.98;100144.03;7293574;19;130439;-39
2024/01/13 00:27:14;;;;;;;183.07;7.40;;;;;;;20.48;49.40;100128.72;7291058;19;129506;-39
2024/01/13 00:29:40;;;;;;;151.68;6.30;;;;;;;20.57;49.64;100145.47;7290294;19;129137;-39
2024/01/13 00:32:05;;;;;;;269.85;11.13;;;;;;;20.56;49.57;100143.81;7291552;19;132578;-39
2024/01/13 00:34:30;;;;;;;127.38;5.35;;;;;;;20.52;50.15;100142.38;7281138;19;130684;-39
2024/01/13 00:36:56;;;;;;;212.70;8.32;;;;;;;20.52;50.84;100139.78;7290244;19;129677;-38
2024/01/13 00:39:21;;;;;;;236.85;9.23;;;;;;;20.38;50.84;100111.25;7286552;19;130408;-39
2024/01/13 00:41:46;;;;;;;279.98;11.00;;;;;;;20.47;51.13;100141.91;7286280;19;130148;-39
2024/01/13 00:44:12;;;;;;;323.35;13.25;;;;;;;20.46;51.33;100135.84;7284384;19;131014;-39
2024/01/13 00:46:37;;;;;;;227.93;9.20;;;;;;;20.47;51.54;100136.69;7287753;19;130890;-38
2024/01/13 00:49:02;;;;;;;246.23;10.13;;;;;;;20.47;51.48;100136.69;7292175;19;130441;-39
2024/01/13 00:51:30;;;;;;;129.45;5.25;;;;;;;20.46;51.55;100141.06;7297532;19;130519;-39
2024/01/13 00:53:55;;;;;;;223.15;9.48;;;;;;;20.43;51.35;100133.47;7298550;19;130493;-38
2024/01/13 00:56:21;;;;;;;192.68;7.68;;;;;;;20.47;51.59;100131.47;7296271;19;131380;-39
2024/01/13 00:58:46;;;;;;;283.55;10.80;;;;;;;20.44;51.52;100126.47;7298936;19;129548;-39
2024/01/13 01:01:13;;;;;;;239.90;9.40;;;;;;;20.53;50.49;100126.59;7299047;19;129203;-39
2024/01/13 01:03:38;;;;;;;177.55;7.00;;;;;;;20.52;50.58;100124.94;7297111;19;130546;-39
2024/01/13 01:06:04;;;;;;;177.18;7.05;;;;;;;20.47;50.61;100115.78;7299230;19;131107;-39
2024/01/13 01:08:29;;;;;;;237.63;9.43;;;;;;;20.32;50.16;100086.47;7297183;19;130445;-39
2024/01/13 01:10:55;;;;;;;195.43;7.65;;;;;;;20.55;50.03;100113.41;7300098;19;129337;-39
2024/01/13 01:13:20;;;;;;;165.90;6.38;;;;;;;20.55;49.38;100121.25;7298814;19;131581;-40
2024/01/13 01:15:45;;;;;;;202.18;7.93;;;;;;;20.54;49.96;100114.38;7297796;19;130012;-39
2024/01/13 01:18:11;;;;;;;160.63;6.68;;;;;;;20.52;50.01;100108.44;7296071;19;129694;-39
2024/01/13 01:20:36;;;;;;;202.35;8.30;;;;;;;20.54;49.56;100101.31;7298606;19;130056;-38
2024/01/13 01:23:02;;;;;;;197.00;8.05;;;;;;;20.55;50.00;100102.97;7298166;19;130989;-39
2024/01/13 01:25:27;;;;;;;148.43;5.90;;;;;;;20.55;49.42;100116.00;7297673;19;130181;-38
2024/01/13 01:27:52;;;;;;;212.73;8.20;;;;;;;20.45;49.06;100078.50;7297334;19;130346;-39
2024/01/13 01:30:18;;;;;;;182.57;7.25;;;;;;;20.56;49.42;100088.97;7298117;19;130190;-39
2024/01/13 01:32:43;;;;;;;118.15;4.88;;;;;;;20.54;49.32;100093.47;7298321;19;131186;-39
2024/01/13 01:35:08;;;;;;;221.90;8.85;;;;;;;20.53;49.24;100094.41;7297020;19;129172;-39
2024/01/13 01:37:34;;;;;;;200.77;8.00;;;;;;;20.53;50.99;100091.78;7297175;19;129049;-38
2024/01/13 01:39:59;;;;;;;154.70;6.00;;;;;;;20.54;50.91;100090.84;7298896;19;133116;-39
2024/01/13 01:42:25;;;;;;;170.98;7.18;;;;;;;20.50;50.53;100090.25;7298402;19;130865;-38
2024/01/13 01:44:50;;;;;;;186.63;7.40;;;;;;;20.52;50.52;100090.13;7295066;19;129759;-39
2024/01/13 01:47:18;;;;;;;129.57;5.35;;;;;;;20.56;49.82;100083.75;7296556;19;129890;-39
2024/01/13 01:49:44;;;;;;;171.02;6.82;;;;;;;20.38;49.37;100067.72;7297272;19;132375;-39
2024/01/13 01:52:09;;;;;;;191.13;7.82;;;;;;;20.55;49.81;100089.91;7296775;19;130310;-39
2024/01/13 01:54:35;;;;;;;194.90;7.57;;;;;;;20.56;49.32;100086.34;7297689;19;129629;-38
2024/01/13 01:57:02;;;;;;;161.27;6.20;;;;;;;20.51;49.13;100078.84;7297349;19;130420;-39
2024/01/13 01:59:28;;;;;;;121.22;4.82;;;;;;;20.59;49.10;100088.72;7295498;19;131595;-39
2024/01/13 02:01:53;;;;;;;185.90;7.20;;;;;;;20.55;49.35;100082.06;7297124;19;130252;-39
2024/01/13 02:04:19;;;;;;;170.57;6.60;;;;;;;20.56;48.89;100078.50;7295249;19;129732;-39
2024/01/13 02:06:44;;;;;;;157.48;6.28;;;;;;;20.54;49.25;100078.59;7295648;19;129533;-39
2024/01/13 02:09:12;;;;;;;193.73;7.90;;;;;;;20.54;49.57;100069.97;7297190;19;129591;-39
2024/01/13 02:11:37;;;;;;;177.45;7.13;;;;;;;20.49;49.60;100072.09;7296518;19;130218;-39
2024/01/13 02:14:02;;;;;;;210.90;9.05;;;;;;;20.51;50.09;100075.44;7296085;19;129932;-39
2024/01/13 02:16:28;;;;;;;213.70;8.48;;;;;;;20.52;50.45;100059.63;7297354;19;129460;-39
2024/01/13 02:18:53;;;;;;;179.43;7.00;;;;;;;20.48;50.58;100060.81;7296363;19;129517;-39
2024/01/13 02:21:19;;;;;;;225.10;9.25;;;;;;;20.45;51.22;100055.00;7296806;19;131031;-39
2024/01/13 02:23:44;;;;;;;203.45;7.75;;;;;;;20.45;50.82;100058.44;7296465;19;129992;-39
2024/01/13 02:26:09;;;;;;;180.90;7.47;;;;;;;20.33;51.10;100035.06;7294630;19;129299;-39
2024/01/13 02:28:35;;;;;;;170.90;6.65;;;;;;;20.42;50.85;100052.63;7289469;19;130145;-39
2024/01/13 02:31:01;;;;;;;275.45;10.43;;;;;;;20.45;51.00;100044.56;7292956;19;130979;-39
2024/01/13 02:33:26;;;;;;;148.35;5.88;;;;;;;20.42;51.00;100040.41;7296640;19;129678;-39
2024/01/13 02:35:51;;;;;;;163.23;6.43;;;;;;;20.36;51.09;100029.63;7295120;19;130103;-39
2024/01/13 02:38:16;;;;;;;209.18;8.57;;;;;;;20.40;51.14;100039.72;7290630;19;130065;-39
2024/01/13 02:40:42;;;;;;;258.77;9.75;;;;;;;20.43;51.63;100030.78;7295565;19;131216;-39
2024/01/13 02:43:07;;;;;;;189.50;7.55;;;;;;;20.39;51.19;100029.38;7296724;19;131071;-38
2024/01/13 02:45:33;;;;;;;204.18;7.97;;;;;;;20.47;51.22;100027.00;7295975;19;129777;-39
2024/01/13 02:48:10;;;;;;;103.20;4.28;;;;;;;20.39;50.57;100024.16;7292844;19;130296;-39
2024/01/13 02:50:36;;;;;;;105.80;4.45;;;;;;;20.42;50.52;100023.91;7292464;19;130532;-39
2024/01/13 02:53:01;;;;;;;204.50;8.07;;;;;;;20.45;50.72;100021.06;7295449;19;129191;-39
2024/01/13 02:55:26;;;;;;;134.93;5.43;;;;;;;20.36;49.90;100011.34;7295595;19;129743;-39
2024/01/13 02:57:52;;;;;;;197.52;7.95;;;;;;;20.46;49.82;100020.13;7292366;19;129704;-39
2024/01/13 03:00:17;;;;;;;219.73;8.63;;;;;;;20.50;49.64;100009.28;7293643;19;129532;-39
2024/01/13 03:02:44;;;;;;;180.18;6.88;;;;;;;20.48;49.03;100007.75;7291620;19;131260;-39
2024/01/13 03:05:10;;;;;;;207.27;8.32;;;;;;;20.48;49.58;100012.97;7290341;19;130221;-39
2024/01/13 03:07:35;;;;;;;103.65;4.25;;;;;;;20.48;49.98;100007.75;7293186;19;129548;-39
2024/01/13 03:10:01;;;;;;;191.23;7.35;;;;;;;20.47;49.97;99996.50;7290297;19;131460;-39
2024/01/13 03:12:26;;;;;;;211.95;8.60;;;;;;;20.47;49.22;100006.09;7292749;19;130502;-39
2024/01/13 03:14:51;;;;;;;201.82;7.72;;;;;;;20.49;49.16;99998.97;7294852;19;130161;-39
2024/01/13 03:17:17;;;;;;;242.13;9.73;;;;;;;20.46;49.62;99999.22;7292640;19;129247;-39
2024/01/13 03:19:42;;;;;;;177.02;6.78;;;;;;;20.30;49.71;99967.44;7292030;19;129672;-39
2024/01/13 03:22:08;;;;;;;135.27;5.20;;;;;;;20.42;50.01;99997.78;7295360;19;129185;-39
2024/01/13 03:24:33;;;;;;;177.57;6.82;;;;;;;20.44;50.52;99999.31;7293017;19;129211;-39
2024/01/13 03:26:58;;;;;;;210.73;8.40;;;;;;;20.43;50.87;99995.06;7293855;19;130030;-39
2024/01/13 03:29:23;;;;;;;214.30;8.57;;;;;;;20.44;51.28;99985.44;7294307;19;131805;-39
2024/01/13 03:31:49;;;;;;;185.52;7.35;;;;;;;20.42;51.20;99982.13;7293274;19;131416;-39
2024/01/13 03:34:14;;;;;;;190.10;8.18;;;;;;;20.37;50.97;99968.59;7291528;19;130308;-39
2024/01/13 03:36:39;;;;;;;195.23;7.65;;;;;;;20.22;51.65;99952.38;7290907;19;130421;-38
2024/01/13 03:39:05;;;;;;;170.27;6.90;;;;;;;20.38;51.22;99975.47;7293190;19;131558;-38
2024/01/13 03:41:31;;;;;;;104.95;4.32;;;;;;;20.36;51.44;99977.41;7293198;19;129267;-39
2024/01/13 03:43:57;;;;;;;197.55;8.65;;;;;;;20.33;51.34;99972.41;7289686;19;129449;-38
2024/01/13 03:46:23;;;;;;;237.73;9.18;;;;;;;20.21;51.98;99962.97;7291255;19;131084;-38
2024/01/13 03:48:48;;;;;;;240.23;9.45;;;;;;;20.41;50.60;99973.47;7294694;19;129839;-38
2024/01/13 03:51:15;;;;;;;185.07;7.25;;;;;;;20.41;50.81;99962.19;7293711;19;129596;-38
2024/01/13 03:53:41;;;;;;;151.73;6.07;;;;;;;20.25;51.35;99933.03;7293142;19;129172;-38
2024/01/13 03:56:08;;;;;;;252.13;9.75;;;;;;;20.41;50.08;99954.38;7293242;19;130325;-38
2024/01/13 03:58:36;;;;;;;189.35;7.43;;;;;;;20.38;49.94;99949.38;7292427;19;130332;-38
2024/01/13 04:01:03;;;;;;;172.35;6.72;;;;;;;20.41;50.19;99944.72;7294001;19;129074;-39
2024/01/13 04:03:28;;;;;;;245.02;9.75;;;;;;;20.38;49.61;99944.13;7292221;19;129900;-39
2024/01/13 04:05:53;;;;;;;251.02;9.77;;;;;;;20.38;50.01;99938.91;7292774;19;133557;-38
2024/01/13 04:08:19;;;;;;;185.75;7.50;;;;;;;20.43;49.71;99935.00;7293947;19;132974;-38
2024/01/13 04:10:44;;;;;;;189.40;7.30;;;;;;;20.45;49.36;99929.66;7293993;19;129271;-39
2024/01/13 04:13:12;;;;;;;182.63;6.95;;;;;;;20.41;49.44;99928.25;7294068;19;129185;-38
2024/01/13 04:15:37;;;;;;;189.65;7.15;;;;;;;20.44;49.58;99934.03;7292397;19;129667;-37
2024/01/13 04:18:03;;;;;;;192.82;7.47;;;;;;;20.50;48.92;99932.72;7293382;19;131356;-37
2024/01/13 04:20:28;;;;;;;180.65;7.28;;;;;;;20.42;49.99;99929.91;7293575;19;129117;-39
2024/01/13 04:22:53;;;;;;;89.93;3.67;;;;;;;20.39;50.53;99930.16;7291481;19;129188;-38
2024/01/13 04:25:18;;;;;;;201.32;7.75;;;;;;;20.34;51.10;99927.09;7289180;19;129895;-38
2024/01/13 04:27:44;;;;;;;167.73;6.75;;;;;;;20.29;51.72;99921.41;7292145;19;129806;-38
2024/01/13 04:30:11;;;;;;;174.52;6.90;;;;;;;20.29;51.88;99926.63;7294024;19;129087;-39
2024/01/13 04:32:36;;;;;;;225.52;8.60;;;;;;;20.27;52.25;99915.47;7293385;19;130055;-39
2024/01/13 04:35:01;;;;;;;141.52;5.57;;;;;;;20.32;51.61;99916.75;7292013;19;129578;-38
2024/01/13 04:37:27;;;;;;;163.55;6.65;;;;;;;20.32;51.81;99923.75;7290765;19;129852;-38
2024/01/13 04:39:52;;;;;;;191.45;7.60;;;;;;;20.28;51.90;99917.16;7293481;19;130102;-38
2024/01/13 04:42:18;;;;;;;208.10;8.15;;;;;;;20.32;52.13;99914.16;7294349;19;133229;-39
2024/01/13 04:44:43;;;;;;;165.75;6.47;;;;;;;20.34;52.41;99908.81;7291716;19;130170;-38
2024/01/13 04:47:09;;;;;;;177.65;7.03;;;;;;;20.32;52.80;99898.50;7288443;19;129688;-37
2024/01/13 04:49:34;;;;;;;167.00;6.35;;;;;;;20.29;51.39;99903.13;7293176;19;131140;-39
2024/01/13 04:51:59;;;;;;;237.10;9.13;;;;;;;20.29;50.63;99892.69;7293277;19;130194;-38
2024/01/13 04:54:25;;;;;;;205.68;8.23;;;;;;;20.27;51.09;99884.13;7293170;19;130768;-38
2024/01/13 04:56:50;;;;;;;93.22;3.72;;;;;;;20.30;50.84;99889.09;7290890;19;130337;-38
2024/01/13 04:59:15;;;;;;;160.02;6.28;;;;;;;20.34;50.59;99883.53;7290920;19;129051;-36
2024/01/13 05:01:41;;;;;;;250.65;9.82;;;;;;;20.35;50.76;99881.72;7292831;19;130499;-38
2024/01/13 05:04:06;;;;;;;222.57;9.48;;;;;;;20.34;49.65;99886.16;7291410;19;130334;-39
2024/01/13 05:06:31;;;;;;;251.73;9.65;;;;;;;20.35;49.56;99879.97;7290423;19;130348;-37
2024/01/13 05:08:57;;;;;;;171.35;6.53;;;;;;;20.36;49.62;99872.97;7291811;19;129676;-36
2024/01/13 05:11:22;;;;;;;142.05;5.47;;;;;;;20.38;50.08;99876.25;7292359;19;129379;-39
2024/01/13 05:13:47;;;;;;;191.55;7.40;;;;;;;20.39;50.21;99873.53;7291770;19;130132;-39
2024/01/13 05:16:13;;;;;;;198.90;7.72;;;;;;;20.35;49.77;99866.06;7290866;19;130305;-38
2024/01/13 05:18:38;;;;;;;243.48;9.27;;;;;;;20.41;49.06;99871.59;7288716;19;130657;-38
2024/01/13 05:21:04;;;;;;;153.38;6.05;;;;;;;20.21;49.65;99841.06;7293525;19;131007;-39
2024/01/13 05:23:29;;;;;;;172.27;6.97;;;;;;;20.33;50.06;99866.19;7291295;19;130278;-38
2024/01/13 05:25:54;;;;;;;112.68;4.60;;;;;;;20.31;51.54;99856.84;7291211;19;130478;-38
2024/01/13 05:28:20;;;;;;;335.70;13.75;;;;;;;20.32;51.46;99858.47;7286805;19;129597;-38
2024/01/13 05:30:45;;;;;;;182.52;7.68;;;;;;;20.30;52.10;99857.78;7288118;19;129831;-38
2024/01/13 05:33:11;;;;;;;340.27;14.40;;;;;;;20.28;52.16;99854.47;7284198;19;130190;-38
2024/01/13 05:35:36;;;;;;;154.27;6.40;;;;;;;20.06;51.65;99836.25;7295187;19;130669;-38
2024/01/13 05:38:01;;;;;;;148.85;5.65;;;;;;;20.17;52.54;99857.13;7291320;19;131340;-38
2024/01/13 05:40:27;;;;;;;214.50;8.57;;;;;;;20.08;51.92;99845.59;7291929;19;130038;-38
2024/01/13 05:42:52;;;;;;;278.50;11.05;;;;;;;20.13;52.38;99855.69;7295037;19;130139;-38
2024/01/13 05:45:17;;;;;;;220.63;8.73;;;;;;;19.97;52.35;99844.81;7291160;19;131201;-38
2024/01/13 05:47:43;;;;;;;166.63;6.55;;;;;;;20.04;52.71;99861.63;7296681;19;129292;-38
2024/01/13 05:50:09;;;;;;;78.03;3.38;;;;;;;20.07;52.68;99866.59;7295230;19;129341;-39
2024/01/13 05:52:36;;;;;;;197.95;7.63;;;;;;;20.19;50.86;99855.22;7296879;19;130181;-39
2024/01/13 05:55:03;;;;;;;248.18;9.38;;;;;;;20.31;50.72;99859.44;7295164;19;131570;-39
2024/01/13 05:57:28;;;;;;;136.82;5.60;;;;;;;20.34;50.52;99860.03;7296861;19;129674;-37
2024/01/13 05:59:53;;;;;;;183.05;6.93;;;;;;;20.34;50.31;99865.25;7297187;19;129759;-39
2024/01/13 06:02:19;;;;;;;220.18;8.73;;;;;;;20.38;50.17;99868.41;7295577;19;130182;-37
2024/01/13 06:04:46;;;;;;;263.67;10.18;;;;;;;20.15;50.93;99853.78;7292225;19;130241;-39
2024/01/13 06:07:11;;;;;;;164.25;6.38;;;;;;;20.34;50.12;99860.03;7295454;19;129099;-38
2024/01/13 06:09:39;;;;;;;210.13;8.20;;;;;;;20.32;50.61;99866.31;7297935;19;129705;-41
2024/01/13 06:12:05;;;;;;;186.45;7.25;;;;;;;20.35;49.78;99863.44;7297499;19;131549;-38
2024/01/13 06:14:30;;;;;;;231.17;9.43;;;;;;;20.27;50.46;99861.47;7295049;19;131004;-37
2024/01/13 06:16:56;;;;;;;141.65;5.63;;;;;;;20.17;51.81;99865.78;7295989;19;131584;-40
2024/01/13 06:19:21;;;;;;;165.75;6.85;;;;;;;20.13;52.27;99847.84;7295703;19;130517;-38
2024/01/13 06:21:47;;;;;;;210.77;8.18;;;;;;;20.08;52.42;99848.22;7295028;19;130908;-36
2024/01/13 06:24:12;;;;;;;189.57;7.47;;;;;;;20.03;52.84;99844.34;7295653;19;129123;-38
2024/01/13 06:26:39;;;;;;;203.85;8.30;;;;;;;20.02;53.47;99847.88;7290842;19;130707;-41
2024/01/13 06:29:05;;;;;;;224.65;8.90;;;;;;;20.01;53.51;99849.69;7285583;19;130743;-34
2024/01/13 06:31:31;;;;;;;175.97;7.20;;;;;;;19.98;53.13;99849.91;7293339;19;130643;-40
2024/01/13 06:33:56;;;;;;;237.80;9.77;;;;;;;19.99;53.72;99843.75;7291970;19;130337;-39
2024/01/13 06:36:21;;;;;;;174.27;6.95;;;;;;;20.00;53.23;99839.38;7294245;19;131061;-40
2024/01/13 06:38:47;;;;;;;166.43;6.85;;;;;;;20.00;52.97;99839.38;7293429;19;130997;-38
2024/01/13 06:41:12;;;;;;;225.63;8.63;;;;;;;20.00;53.32;99831.53;7293296;19;130453;-38
2024/01/13 06:43:38;;;;;;;168.55;6.70;;;;;;;20.14;51.67;99836.44;7294942;19;130184;-36
2024/01/13 06:46:05;;;;;;;259.67;10.00;;;;;;;20.22;51.37;99831.47;7292779;19;130641;-39
2024/01/13 06:48:31;;;;;;;175.00;6.72;;;;;;;20.28;50.53;99833.59;7291624;19;130486;-39
2024/01/13 06:50:56;;;;;;;320.80;12.73;;;;;;;20.29;50.51;99827.41;7290611;19;130265;-38
2024/01/13 06:53:21;;;;;;;251.68;10.02;;;;;;;20.31;50.17;99828.13;7287431;19;130486;-39
2024/01/13 06:55:47;;;;;;;195.65;7.75;;;;;;;20.29;50.36;99824.81;7288834;19;130666;-38
2024/01/13 06:58:16;;;;;;;305.90;12.63;;;;;;;20.33;50.29;99826.19;7285128;19;129947;-38
2024/01/13 07:00:41;;;;;;;280.50;10.77;;;;;;;20.38;50.27;99824.03;7285019;19;131163;-38
2024/01/13 07:03:07;;;;;;;255.15;10.38;;;;;;;20.38;49.62;99827.47;7289892;19;131728;-40
2024/01/13 07:05:32;;;;;;;185.55;7.47;;;;;;;20.37;49.64;99827.59;7289452;19;129762;-39
2024/01/13 07:07:59;;;;;;;178.35;7.05;;;;;;;20.35;49.92;99824.28;7289022;19;129769;-38
2024/01/13 07:10:25;;;;;;;210.65;8.20;;;;;;;20.38;49.88;99829.25;7288338;19;132675;-36
2024/01/13 07:12:51;;;;;;;235.15;9.35;;;;;;;20.38;49.63;99824.88;7292038;19;131288;-38
2024/01/13 07:15:16;;;;;;;179.97;7.00;;;;;;;20.36;49.80;99818.13;7290853;19;129330;-39
2024/01/13 07:17:41;;;;;;;291.70;11.75;;;;;;;20.37;49.87;99823.22;7289352;19;129137;-38
2024/01/13 07:20:07;;;;;;;188.90;7.20;;;;;;;20.35;49.97;99816.44;7295111;19;131185;-36
2024/01/13 07:22:34;;;;;;;176.95;7.45;;;;;;;20.30;50.44;99816.84;7293480;19;131324;-38
2024/01/13 07:24:59;;;;;;;231.52;9.20;;;;;;;20.36;51.31;99818.13;7291058;19;129505;-39
2024/01/13 07:27:25;;;;;;;209.15;8.15;;;;;;;20.32;51.80;99814.09;7292198;19;129940;-39
2024/01/13 07:29:50;;;;;;;196.40;7.82;;;;;;;20.30;52.14;99810.78;7294670;19;131284;-38
2024/01/13 07:32:16;;;;;;;144.82;5.80;;;;;;;20.30;52.07;99806.38;7293331;19;131634;-38
2024/01/13 07:34:42;;;;;;;179.25;6.97;;;;;;;20.31;52.14;99802.00;7293170;19;129132;-40
2024/01/13 07:37:07;;;;;;;266.48;10.23;;;;;;;20.34;51.57;99802.59;7292931;19;129894;-40
2024/01/13 07:39:33;;;;;;;184.48;7.30;;;;;;;20.18;52.08;99780.47;7294679;19;130147;-39
2024/01/13 07:41:58;;;;;;;94.43;3.78;;;;;;;20.28;51.90;99802.28;7293799;19;129797;-39
2024/01/13 07:44:23;;;;;;;156.68;6.10;;;;;;;20.27;52.15;99790.16;7292475;19;129739;-38
2024/01/13 07:46:49;;;;;;;234.88;9.27;;;;;;;20.25;51.96;99798.09;7291407;19;129224;-39
2024/01/13 07:49:14;;;;;;;179.25;6.95;;;;;;;20.29;51.25;99793.47;7293231;19;129795;-39
2024/01/13 07:51:40;;;;;;;209.52;8.20;;;;;;;20.29;50.51;99790.84;7290913;19;131730;-39
2024/01/13 07:54:05;;;;;;;247.25;10.15;;;;;;;20.21;51.42;99775.81;7288351;19;133752;-42
2024/01/13 07:56:31;;;;;;;273.85;11.10;;;;;;;20.30;51.55;99788.13;7283184;19;130044;-40
2024/01/13 07:58:56;;;;;;;222.88;8.95;;;;;;;20.28;50.42;99789.22;7286064;19;132619;-40
2024/01/13 08:01:21;;;;;;;166.10;6.90;;;;;;;20.30;50.29;99784.66;7291170;19;130809;-39
2024/01/13 08:03:47;;;;;;;144.55;5.82;;;;;;;20.24;51.58;99782.56;7287155;19;130313;-38
2024/01/13 08:06:13;;;;;;;103.95;4.20;;;;;;;20.30;50.64;99782.91;7288317;19;130401;-37
2024/01/13 08:08:38;;;;;;;211.48;8.70;;;;;;;20.28;50.36;99774.34;7289747;19;130118;-37
2024/01/13 08:11:04;;;;;;;221.88;9.18;;;;;;;20.36;50.28;99777.16;7288195;19;130402;-39
2024/01/13 08:13:29;;;;;;;270.60;10.40;;;;;;;20.22;50.72;99747.94;7289489;19;129559;-38
2024/01/13 08:15:54;;;;;;;159.45;6.38;;;;;;;20.36;50.31;99765.91;7291793;19;129893;-38
2024/01/13 08:18:20;;;;;;;121.10;5.45;;;;;;;20.41;50.08;99768.97;7290993;19;131037;-38
2024/01/13 08:20:45;;;;;;;252.60;11.07;;;;;;;20.42;50.23;99763.59;7289918;19;131627;-37
2024/01/13 08:23:10;;;;;;;302.15;12.50;;;;;;;20.40;50.46;99765.50;7289798;19;129925;-38
2024/01/13 08:25:36;;;;;;;178.05;7.82;;;;;;;20.43;51.08;99757.41;7283152;19;129734;-39
2024/01/13 08:28:02;;;;;;;196.35;8.00;;;;;;;20.42;50.16;99747.09;7283016;19;130205;-37
2024/01/13 08:30:27;;;;;;;260.92;10.30;;;;;;;20.44;50.67;99755.66;7287353;19;132047;-38
2024/01/13 08:32:53;;;;;;;300.30;11.98;;;;;;;20.39;50.13;99761.25;7284799;19;129115;-37
2024/01/13 08:35:19;;;;;;;399.47;16.67;;;;;;;20.40;50.10;99755.06;7264220;19;130730;-37
2024/01/13 08:37:44;;;;;;;361.23;15.60;;;;;;;20.36;50.96;99752.84;7279416;19;130621;-36
2024/01/13 08:40:10;;;;;;;358.58;15.25;;;;;;;20.43;50.61;99749.59;7273052;19;130318;-37
2024/01/13 08:42:37;;;;;;;308.38;12.80;;;;;;;20.48;51.65;99751.81;7278845;19;130287;-36
2024/01/13 08:45:03;;;;;;;237.27;9.80;;;;;;;20.32;51.39;99720.09;7283400;19;129647;-38
2024/01/13 08:47:29;;;;;;;276.55;11.35;;;;;;;20.47;51.09;99750.16;7288841;19;130200;-39
2024/01/13 08:49:55;;;;;;;178.30;7.43;;;;;;;20.47;51.48;99744.94;7287301;19;130509;-38
2024/01/13 08:52:20;;;;;;;113.00;4.90;;;;;;;20.52;51.95;99740.16;7289340;19;130264;-38
2024/01/13 08:54:46;;;;;;;166.25;7.43;;;;;;;20.59;51.81;99738.69;7284381;19;130747;-38
2024/01/13 08:57:11;;;;;;;276.00;11.05;;;;;;;20.49;51.63;99732.59;7288929;19;130028;-38
2024/01/13 08:59:38;;;;;;;217.43;9.27;;;;;;;20.53;51.81;99726.97;7290708;19;130265;-38
2024/01/13 09:02:04;;;;;;;231.07;9.57;;;;;;;20.49;51.71;99716.91;7285540;19;130011;-35
2024/01/13 09:04:30;;;;;;;131.93;5.78;;;;;;;20.34;51.52;99692.09;7288796;19;129568;-38
2024/01/13 09:06:55;;;;;;;209.30;8.53;;;;;;;20.49;51.76;99711.69;7287144;19;130273;-40
2024/01/13 09:09:21;;;;;;;195.60;8.20;;;;;;;20.49;51.56;99716.91;7296460;19;131050;-38
2024/01/13 09:11:47;;;;;;;248.05;10.75;;;;;;;20.53;51.66;99707.84;7294471;19;130326;-37
2024/01/13 09:14:13;;;;;;;172.77;7.25;;;;;;;20.53;51.27;99703.47;7290975;19;130396;-38
2024/01/13 09:16:39;;;;;;;217.65;8.88;;;;;;;20.50;51.47;99713.34;7295311;19;130709;-38
2024/01/13 09:19:04;;;;;;;184.27;7.93;;;;;;;20.53;51.12;99710.47;7294588;19;131040;-36
2024/01/13 09:21:29;;;;;;;156.20;6.40;;;;;;;20.57;51.59;99709.25;7297395;19;129654;-38
2024/01/13 09:23:55;;;;;;;206.98;8.38;;;;;;;20.52;51.28;99708.81;7296600;19;129217;-40
2024/01/13 09:26:20;;;;;;;213.50;8.85;;;;;;;20.56;51.27;99712.84;7296800;19;130209;-37
2024/01/13 09:28:46;;;;;;;245.63;10.50;;;;;;;20.52;51.21;99708.81;7295713;19;130892;-38
2024/01/13 09:31:11;;;;;;;189.38;7.60;;;;;;;20.52;51.24;99712.25;7298368;19;129504;-38
2024/01/13 09:33:36;;;;;;;175.07;7.05;;;;;;;20.53;51.80;99710.47;7296383;19;130055;-36
2024/01/13 09:36:02;;;;;;;282.67;11.85;;;;;;;20.49;51.80;99711.69;7291080;19;130212;-37
2024/01/13 09:38:27;;;;;;;157.50;6.47;;;;;;;20.46;51.53;99701.50;7294004;19;131210;-36
2024/01/13 09:40:53;;;;;;;235.60;9.80;;;;;;;20.49;51.59;99696.03;7297068;19;132497;-38
2024/01/13 09:43:32;;;;;;;222.90;9.05;;;;;;;20.44;52.29;99692.97;7296735;19;129281;-38
2024/01/13 09:45:57;;;;;;;231.40;9.35;;;;;;;20.48;51.82;99694.34;7292480;19;133091;-38
2024/01/13 09:48:23;;;;;;;210.00;8.98;;;;;;;20.53;50.86;99693.00;7293608;19;131015;-39
2024/01/13 09:50:53;;;;;;;228.57;9.93;;;;;;;20.55;50.85;99685.03;7289223;19;132445;-39
2024/01/13 09:53:29;;;;;;;105.95;4.75;;;;;;;20.36;51.25;99658.84;7295020;19;129121;-39
2024/01/13 09:55:59;;;;;;;254.30;10.40;;;;;;;20.53;50.99;99692.19;7296095;19;132138;-37
2024/01/13 09:58:25;;;;;;;153.82;6.18;;;;;;;20.51;51.11;99684.47;7294161;19;132014;-37
2024/01/13 10:00:53;;;;;;;234.98;10.20;;;;;;;20.51;50.64;99683.66;7295696;19;129038;-41
2024/01/13 10:03:19;;;;;;;200.05;8.27;;;;;;;20.49;51.18;99681.16;7294163;19;129760;-36
2024/01/13 10:05:45;;;;;;;316.90;12.70;;;;;;;20.47;50.70;99677.03;7285551;19;130071;-44
2024/01/13 10:08:12;;;;;;;271.23;11.05;;;;;;;20.51;51.15;99681.06;7287969;19;130546;-42
2024/01/13 10:10:38;;;;;;;196.30;8.02;;;;;;;20.49;50.71;99685.56;7291894;19;129428;-37
2024/01/13 10:13:06;;;;;;;;;;;;;;;20.51;51.89;99683.66;7293655;19;132121;-42
2024/01/13 10:15:33;;;;;;;157.05;6.60;;;;;;;20.49;51.02;99680.34;7294522;19;130383;-40
2024/01/13 10:18:00;;;;;;;;;;;;;;;20.51;51.60;99671.41;7288487;19;130705;-35
2024/01/13 10:20:25;;;;;;;172.23;7.05;;;;;;;20.49;51.45;99665.50;7293447;19;129207;-38
2024/01/13 10:22:50;;;;;;;252.20;10.07;;;;;;;20.52;51.25;99656.56;7293651;19;130722;-40
2024/01/13 10:25:16;;;;;;;312.60;12.82;;;;;;;20.49;51.50;99643.78;7291217;19;133195;-40
2024/01/13 10:27:44;;;;;;;209.40;8.60;;;;;;;20.35;51.27;99626.69;7293007;19;131768;-36
2024/01/13 10:30:10;;;;;;;170.73;6.90;;;;;;;20.51;50.74;99652.31;7297173;19;129047;-39
2024/01/13 10:32:36;;;;;;;110.90;4.73;;;;;;;20.49;50.77;99644.59;7295231;19;131103;-40
2024/01/13 10:35:02;;;;;;;211.38;8.75;;;;;;;20.48;51.66;99642.13;7293497;19;130627;-36
2024/01/13 10:37:27;;;;;;;174.07;6.75;;;;;;;20.49;51.76;99633.34;7296721;19;131094;-37
2024/01/13 10:39:54;;;;;;;148.32;6.20;;;;;;;20.39;51.37;99601.97;7295767;19;129023;-40
2024/01/13 10:42:25;;;;;;;191.25;8.02;;;;;;;20.48;52.08;99611.63;7295343;19;129560;-38
2024/01/13 10:44:57;;;;;;;247.52;9.73;;;;;;;20.48;51.57;99618.63;7291167;19;129893;-39
2024/01/13 10:47:29;;;;;;;216.18;8.52;;;;;;;20.50;51.52;99611.47;7291563;19;130724;-39
2024/01/13 10:49:55;;;;;;;184.50;7.95;;;;;;;20.49;51.56;99609.84;7290629;19;129673;-34
2024/01/13 10:52:29;;;;;;;140.75;5.93;;;;;;;20.47;51.52;99601.31;7293540;19;129819;-37
2024/01/13 10:54:57;;;;;;;177.23;7.63;;;;;;;20.49;50.94;99628.13;7296054;19;133440;-36
2024/01/13 10:57:24;;;;;;;214.90;8.70;;;;;;;20.52;51.57;99606.97;7295115;19;131314;-38
2024/01/13 10:59:53;;;;;;;249.95;10.07;;;;;;;20.48;50.99;99611.63;7294255;19;129355;-44